createdAt,value
2022-11-29T00:01:29.930Z,9.30
2022-11-29T00:03:56.992Z,9.30
2022-11-29T00:06:29.139Z,9.30
2022-11-29T00:08:58.887Z,9.30
2022-11-29T00:11:47.418Z,9.20
2022-11-29T00:14:17.388Z,9.30
2022-11-29T00:16:44.287Z,9.30
2022-11-29T00:19:13.113Z,9.30
2022-11-29T00:21:39.981Z,9.30
2022-11-29T00:24:07.468Z,9.30
2022-11-29T00:26:34.428Z,9.30
2022-11-29T00:29:01.376Z,9.30
2022-11-29T00:31:30.828Z,9.30
2022-11-29T00:33:59.556Z,9.30
2022-11-29T00:36:27.068Z,9.30
2022-11-29T00:38:53.919Z,9.30
2022-11-29T00:41:20.798Z,9.30
2022-11-29T00:43:47.773Z,9.30
2022-11-29T00:46:14.652Z,9.30
2022-11-29T00:48:41.727Z,9.30
2022-11-29T00:51:08.942Z,9.20
2022-11-29T00:53:36.552Z,9.20
2022-11-29T00:56:05.220Z,9.20
2022-11-29T00:58:32.578Z,9.30
2022-11-29T01:00:59.424Z,9.30
2022-11-29T01:03:26.293Z,9.30
2022-11-29T01:05:53.319Z,9.30
2022-11-29T01:08:20.222Z,9.20
2022-11-29T01:10:47.150Z,9.20
2022-11-29T01:13:14.048Z,9.30
2022-11-29T01:15:42.112Z,9.20
2022-11-29T01:18:08.951Z,9.20
2022-11-29T01:20:35.827Z,9.30
2022-11-29T01:23:02.725Z,9.30
2022-11-29T01:25:29.557Z,9.20
2022-11-29T01:27:56.319Z,9.20
2022-11-29T01:30:23.095Z,9.20
2022-11-29T01:32:49.883Z,9.20
2022-11-29T01:35:16.872Z,9.20
2022-11-29T01:37:43.651Z,9.20
2022-11-29T01:40:10.902Z,9.20
2022-11-29T01:42:37.634Z,9.20
2022-11-29T01:45:13.829Z,9.20
2022-11-29T01:47:45.512Z,9.20
2022-11-29T01:50:12.993Z,9.20
2022-11-29T01:52:41.470Z,9.30
2022-11-29T01:55:09.879Z,9.30
2022-11-29T01:57:40.242Z,9.30
2022-11-29T02:00:15.854Z,9.30
2022-11-29T02:03:09.398Z,9.20
2022-11-29T02:05:40.650Z,9.20
2022-11-29T02:08:09.555Z,9.20
2022-11-29T02:10:42.750Z,9.20
2022-11-29T02:13:32.000Z,9.20
2022-11-29T02:16:20.247Z,9.20
2022-11-29T02:19:02.094Z,9.20
2022-11-29T02:21:44.800Z,9.20
2022-11-29T02:24:19.711Z,9.20
2022-11-29T02:27:18.573Z,9.20
2022-11-29T02:30:04.154Z,9.20
2022-11-29T02:32:48.527Z,9.20
2022-11-29T02:35:43.896Z,9.20
2022-11-29T02:38:55.410Z,9.20
2022-11-29T02:41:43.874Z,9.20
2022-11-29T02:44:30.087Z,9.20
2022-11-29T02:47:06.156Z,9.20
2022-11-29T02:50:10.972Z,9.20
2022-11-29T02:53:05.195Z,9.20
2022-11-29T02:55:44.641Z,9.20
2022-11-29T02:58:26.347Z,9.20
2022-11-29T03:01:07.482Z,9.20
2022-11-29T03:03:46.349Z,9.20
2022-11-29T03:06:36.542Z,9.20
2022-11-29T03:09:12.348Z,9.20
2022-11-29T03:12:31.683Z,9.20
2022-11-29T03:15:15.388Z,9.20
2022-11-29T03:17:56.677Z,9.20
2022-11-29T03:20:33.049Z,9.20
2022-11-29T03:23:13.716Z,9.20
2022-11-29T03:25:59.078Z,9.20
2022-11-29T03:28:25.734Z,9.20
2022-11-29T03:31:08.983Z,9.10
2022-11-29T03:33:42.836Z,9.10
2022-11-29T03:36:15.245Z,9.10
2022-11-29T03:38:45.433Z,9.20
2022-11-29T03:41:20.471Z,9.10
2022-11-29T03:43:55.437Z,9.10
2022-11-29T03:46:56.826Z,9.10
2022-11-29T03:49:35.640Z,9.10
2022-11-29T03:52:17.742Z,9.10
2022-11-29T03:55:11.067Z,9.10
2022-11-29T03:57:50.606Z,9.10
2022-11-29T04:00:18.657Z,9.10
2022-11-29T04:03:16.502Z,9.10
2022-11-29T04:05:54.422Z,9.00
2022-11-29T04:08:46.133Z,9.10
2022-11-29T04:11:58.898Z,9.10
2022-11-29T04:14:34.980Z,9.00
2022-11-29T04:17:32.975Z,9.00
2022-11-29T04:20:24.250Z,9.00
2022-11-29T04:23:09.811Z,9.00
2022-11-29T04:25:39.631Z,8.90
2022-11-29T04:28:06.443Z,8.90
2022-11-29T04:30:58.943Z,8.80
2022-11-29T04:33:37.903Z,8.80
2022-11-29T04:36:42.735Z,8.70
2022-11-29T04:39:43.161Z,8.70
2022-11-29T04:42:51.305Z,8.60
2022-11-29T04:46:06.766Z,8.60
2022-11-29T04:48:43.522Z,8.50
2022-11-29T04:51:50.005Z,8.50
2022-11-29T04:54:38.988Z,8.50
2022-11-29T04:57:31.053Z,8.50
2022-11-29T05:00:08.409Z,8.50
2022-11-29T05:03:06.399Z,8.50
2022-11-29T05:05:43.099Z,8.50
2022-11-29T05:08:32.423Z,8.40
2022-11-29T05:11:23.444Z,8.40
2022-11-29T05:14:12.095Z,8.40
2022-11-29T05:16:49.390Z,8.40
2022-11-29T05:19:34.127Z,8.40
2022-11-29T05:22:24.314Z,8.30
2022-11-29T05:25:19.099Z,8.30
2022-11-29T05:28:10.338Z,8.30
2022-11-29T05:30:57.338Z,8.30
2022-11-29T05:33:43.086Z,8.30
2022-11-29T05:36:42.923Z,8.20
2022-11-29T05:39:37.894Z,8.20
2022-11-29T05:42:23.403Z,8.20
2022-11-29T05:44:57.096Z,8.20
2022-11-29T05:47:32.317Z,8.20
2022-11-29T05:50:30.314Z,8.20
2022-11-29T05:53:29.131Z,8.20
2022-11-29T05:56:29.202Z,8.10
2022-11-29T05:59:11.338Z,8.20
2022-11-29T06:01:50.867Z,8.20
2022-11-29T06:04:33.189Z,8.10
2022-11-29T06:07:24.911Z,8.20
2022-11-29T06:10:01.517Z,8.20
2022-11-29T06:12:34.908Z,8.20
2022-11-29T06:15:23.418Z,8.20
2022-11-29T06:18:08.431Z,8.20
2022-11-29T06:20:47.407Z,8.20
2022-11-29T06:23:38.506Z,8.20
2022-11-29T06:26:24.113Z,8.20
2022-11-29T06:28:57.474Z,8.20
2022-11-29T06:31:30.059Z,8.30
2022-11-29T06:34:13.279Z,8.20
2022-11-29T06:37:04.130Z,8.20
2022-11-29T06:39:31.252Z,8.20
2022-11-29T06:41:57.992Z,8.20
2022-11-29T06:44:25.216Z,8.20
2022-11-29T06:47:04.799Z,8.20
2022-11-29T06:49:51.206Z,8.20
2022-11-29T06:52:49.208Z,8.20
2022-11-29T06:55:33.313Z,8.20
2022-11-29T06:58:30.260Z,8.20
2022-11-29T07:01:26.966Z,8.20
2022-11-29T07:04:34.355Z,8.20
2022-11-29T07:07:01.116Z,8.20
2022-11-29T07:09:34.557Z,8.20
2022-11-29T07:12:01.503Z,8.20
2022-11-29T07:14:28.694Z,8.20
2022-11-29T07:17:17.066Z,8.20
2022-11-29T07:19:48.283Z,8.20
2022-11-29T07:22:30.395Z,8.20
2022-11-29T07:25:05.153Z,8.20
2022-11-29T07:27:35.156Z,8.20
2022-11-29T07:30:22.882Z,8.20
2022-11-29T07:33:09.099Z,8.20
2022-11-29T07:36:03.710Z,8.20
2022-11-29T07:38:51.726Z,8.20
2022-11-29T07:41:51.421Z,8.20
2022-11-29T07:45:05.434Z,8.20
2022-11-29T07:47:35.739Z,8.20
2022-11-29T07:50:04.077Z,8.30
2022-11-29T07:52:30.820Z,8.30
2022-11-29T07:54:57.680Z,8.30
2022-11-29T07:57:24.510Z,8.30
2022-11-29T07:59:51.552Z,8.30
2022-11-29T08:02:29.681Z,8.30
2022-11-29T08:04:57.034Z,8.30
2022-11-29T08:07:24.578Z,8.20
2022-11-29T08:09:51.445Z,8.20
2022-11-29T08:12:18.189Z,8.20
2022-11-29T08:14:45.217Z,8.20
2022-11-29T08:17:12.443Z,8.20
2022-11-29T08:19:39.281Z,8.20
2022-11-29T08:22:06.155Z,8.20
2022-11-29T08:24:32.894Z,8.30
2022-11-29T08:26:59.904Z,8.30
2022-11-29T08:29:26.914Z,8.30
2022-11-29T08:31:54.151Z,8.30
2022-11-29T08:34:23.235Z,8.30
2022-11-29T08:36:51.072Z,8.30
2022-11-29T08:39:19.044Z,8.40
2022-11-29T08:41:46.157Z,8.40
2022-11-29T08:44:13.028Z,8.40
2022-11-29T08:46:58.295Z,8.40
2022-11-29T08:49:25.328Z,8.40
2022-11-29T08:52:15.909Z,8.40
2022-11-29T08:54:43.207Z,8.40
2022-11-29T08:57:38.519Z,8.50
2022-11-29T08:59:57.818Z,8.50
2022-11-29T09:02:24.856Z,8.50
2022-11-29T09:04:51.872Z,8.50
2022-11-29T09:07:18.887Z,8.50
2022-11-29T09:09:45.770Z,8.50
2022-11-29T09:12:12.841Z,8.50
2022-11-29T09:14:39.743Z,8.50
2022-11-29T09:17:06.594Z,8.50
2022-11-29T09:19:33.489Z,8.60
2022-11-29T09:22:00.236Z,8.60
2022-11-29T09:24:27.031Z,8.60
2022-11-29T09:26:53.863Z,8.60
2022-11-29T09:29:20.633Z,8.70
2022-11-29T09:31:47.719Z,8.70
2022-11-29T09:34:16.290Z,8.70
2022-11-29T09:36:44.218Z,8.70
2022-11-29T09:39:14.415Z,8.70
2022-11-29T09:42:05.358Z,8.70
2022-11-29T09:44:45.613Z,8.80
2022-11-29T09:47:21.746Z,8.70
2022-11-29T09:50:24.062Z,8.70
2022-11-29T09:52:52.704Z,8.70
2022-11-29T09:55:36.648Z,8.70
2022-11-29T09:58:09.831Z,8.70
2022-11-29T10:00:52.547Z,8.70
2022-11-29T10:03:25.421Z,8.70
2022-11-29T10:06:11.682Z,8.70
2022-11-29T10:08:45.943Z,8.80
2022-11-29T10:11:24.982Z,8.90
2022-11-29T10:13:56.524Z,8.80
2022-11-29T10:16:49.409Z,8.80
2022-11-29T10:19:33.152Z,8.90
2022-11-29T10:22:15.922Z,8.90
2022-11-29T10:24:47.284Z,8.90
2022-11-29T10:27:19.517Z,8.90
2022-11-29T10:29:50.113Z,8.90
2022-11-29T10:32:20.160Z,8.90
2022-11-29T10:34:49.067Z,8.90
2022-11-29T10:37:23.758Z,8.90
2022-11-29T10:40:00.364Z,8.90
2022-11-29T10:42:47.795Z,8.90
2022-11-29T10:45:20.312Z,8.80
2022-11-29T10:47:50.253Z,8.80
2022-11-29T10:50:24.880Z,8.80
2022-11-29T10:52:59.901Z,8.80
2022-11-29T10:55:38.495Z,8.80
2022-11-29T10:58:26.268Z,8.90
2022-11-29T11:00:58.358Z,8.90
2022-11-29T11:03:41.297Z,8.90
2022-11-29T11:06:08.045Z,8.90
2022-11-29T11:08:35.532Z,8.90
2022-11-29T11:11:04.470Z,8.90
2022-11-29T11:13:32.612Z,8.90
2022-11-29T11:16:17.389Z,8.90
2022-11-29T11:18:45.807Z,8.90
2022-11-29T11:21:15.168Z,8.90
2022-11-29T11:23:48.020Z,8.90
2022-11-29T11:26:14.936Z,8.90
2022-11-29T11:29:01.492Z,8.90
2022-11-29T11:31:37.900Z,8.90
2022-11-29T11:34:35.621Z,8.90
2022-11-29T11:37:14.563Z,8.90
2022-11-29T11:39:42.659Z,9.00
2022-11-29T11:42:40.448Z,9.00
2022-11-29T11:45:13.026Z,9.00
2022-11-29T11:47:44.755Z,9.00
2022-11-29T11:50:15.259Z,9.00
2022-11-29T11:52:50.096Z,9.00
2022-11-29T11:55:37.954Z,9.00
2022-11-29T11:58:09.879Z,9.00
2022-11-29T12:01:12.737Z,9.00
2022-11-29T12:04:02.122Z,9.00
2022-11-29T12:06:36.797Z,8.90
2022-11-29T12:09:06.810Z,8.90
2022-11-29T12:11:46.380Z,8.90
2022-11-29T12:14:22.585Z,8.90
2022-11-29T12:16:51.264Z,8.90
2022-11-29T12:19:23.392Z,8.90
2022-11-29T12:21:55.797Z,8.90
2022-11-29T12:24:34.208Z,8.90
2022-11-29T12:27:05.002Z,8.80
2022-11-29T12:29:35.227Z,8.80
2022-11-29T12:32:13.369Z,8.80
2022-11-29T12:35:09.639Z,8.80
2022-11-29T12:37:45.398Z,8.90
2022-11-29T12:40:29.820Z,8.90
2022-11-29T12:42:59.525Z,8.90
2022-11-29T12:45:47.224Z,8.90
2022-11-29T12:48:46.703Z,8.90
2022-11-29T12:51:27.701Z,8.90
2022-11-29T12:54:27.520Z,8.90
2022-11-29T12:57:15.776Z,8.90
2022-11-29T13:00:07.655Z,8.90
2022-11-29T13:02:53.339Z,8.90
2022-11-29T13:05:25.988Z,8.90
2022-11-29T13:08:17.077Z,8.90
2022-11-29T13:11:28.607Z,9.00
2022-11-29T13:14:40.866Z,9.00
2022-11-29T13:17:02.582Z,9.00
2022-11-29T13:19:44.929Z,9.00
2022-11-29T13:22:33.492Z,9.00
2022-11-29T13:25:17.245Z,9.00
2022-11-29T13:27:58.513Z,9.00
2022-11-29T13:30:26.154Z,8.90
2022-11-29T13:33:05.196Z,8.90
2022-11-29T13:35:43.750Z,8.90
2022-11-29T13:38:36.610Z,8.90
2022-11-29T13:41:16.043Z,8.90
2022-11-29T13:44:07.843Z,8.90
2022-11-29T13:47:02.264Z,8.90
2022-11-29T13:50:05.214Z,9.00
2022-11-29T13:52:38.011Z,9.00
2022-11-29T13:55:13.701Z,9.00
2022-11-29T14:00:44.590Z,9.00
2022-11-29T14:03:23.494Z,9.00
2022-11-29T14:05:52.938Z,9.00
2022-11-29T14:08:42.210Z,9.00
2022-11-29T14:11:14.924Z,9.00
2022-11-29T14:13:41.671Z,8.90
2022-11-29T14:16:19.513Z,8.90
2022-11-29T14:19:05.049Z,8.90
2022-11-29T14:21:56.678Z,8.90
2022-11-29T14:24:32.719Z,8.90
2022-11-29T14:27:22.551Z,8.90
2022-11-29T14:29:58.539Z,8.90
2022-11-29T14:32:41.500Z,8.90
2022-11-29T14:35:11.337Z,8.90
2022-11-29T14:38:00.157Z,8.90
2022-11-29T14:40:41.981Z,8.90
2022-11-29T14:43:35.195Z,8.90
2022-11-29T14:46:08.603Z,8.90
2022-11-29T14:48:36.864Z,8.90
2022-11-29T14:51:12.670Z,8.90
2022-11-29T14:53:41.326Z,8.90
2022-11-29T14:56:39.040Z,8.90
2022-11-29T14:59:40.866Z,8.90
2022-11-29T15:02:19.884Z,8.90
2022-11-29T15:04:50.531Z,8.90
2022-11-29T15:07:31.532Z,8.90
2022-11-29T15:10:02.652Z,8.90
2022-11-29T15:12:35.534Z,8.80
2022-11-29T15:15:10.482Z,8.80
2022-11-29T15:17:53.413Z,8.80
2022-11-29T15:20:38.792Z,8.80
2022-11-29T15:23:18.637Z,8.80
2022-11-29T15:25:53.975Z,8.70
2022-11-29T15:28:21.305Z,8.80
2022-11-29T15:30:49.857Z,8.80
2022-11-29T15:33:25.371Z,8.80
2022-11-29T15:36:08.293Z,8.70
2022-11-29T15:38:44.838Z,8.70
2022-11-29T15:41:36.415Z,8.70
2022-11-29T15:44:07.953Z,8.70
2022-11-29T15:46:35.899Z,8.70
2022-11-29T15:49:28.046Z,8.70
2022-11-29T15:55:45.252Z,8.70
2022-11-29T16:02:25.701Z,8.70
2022-11-29T16:05:27.474Z,8.70
2022-11-29T16:08:09.578Z,8.60
2022-11-29T16:11:07.590Z,8.60
2022-11-29T16:13:53.221Z,8.60
2022-11-29T16:16:29.850Z,8.60
2022-11-29T16:19:35.939Z,8.60
2022-11-29T16:26:20.085Z,8.60
2022-11-29T16:29:25.032Z,8.60
2022-11-29T16:32:00.150Z,8.50
2022-11-29T16:34:34.277Z,8.50
2022-11-29T16:37:30.378Z,8.50
2022-11-29T16:40:33.909Z,8.50
2022-11-29T16:43:52.485Z,8.50
2022-11-29T16:50:09.432Z,8.40
2022-11-29T16:52:40.634Z,8.40
2022-11-29T16:55:23.219Z,8.30
2022-11-29T16:59:20.857Z,8.30
2022-11-29T17:01:50.226Z,8.20
2022-11-29T17:04:32.324Z,8.20
2022-11-29T17:07:12.330Z,8.10
2022-11-29T17:10:10.560Z,8.10
2022-11-29T17:13:23.310Z,8.10
2022-11-29T17:33:44.588Z,7.90
2022-11-29T17:36:15.224Z,7.80
2022-11-29T17:38:43.288Z,7.80
2022-11-29T17:41:12.465Z,7.70
2022-11-29T17:43:39.700Z,7.70
2022-11-29T17:46:11.254Z,7.70
2022-11-29T17:48:39.032Z,7.70
2022-11-29T17:51:28.827Z,7.60
2022-11-29T17:53:54.186Z,7.60
2022-11-29T17:56:24.263Z,7.60
2022-11-29T17:58:53.491Z,7.60
2022-11-29T18:01:23.129Z,7.60
2022-11-29T18:03:52.833Z,7.70
2022-11-29T18:06:22.374Z,7.70
2022-11-29T18:08:53.789Z,7.70
2022-11-29T18:11:28.523Z,7.70
2022-11-29T18:13:56.565Z,7.70
2022-11-29T18:16:28.878Z,7.70
2022-11-29T18:18:58.804Z,7.70
2022-11-29T18:21:26.458Z,7.70
2022-11-29T18:23:54.094Z,7.70
2022-11-29T18:26:23.598Z,7.70
2022-11-29T18:28:50.744Z,7.70
2022-11-29T18:31:22.845Z,7.70
2022-11-29T18:33:52.668Z,7.70
2022-11-29T18:36:22.300Z,7.70
2022-11-29T18:38:54.172Z,7.60
2022-11-29T18:41:22.213Z,7.60
2022-11-29T18:43:49.210Z,7.60
2022-11-29T18:46:19.036Z,7.60
2022-11-29T18:48:47.119Z,7.60
2022-11-29T18:51:16.676Z,7.60
2022-11-29T18:53:43.890Z,7.60
2022-11-29T18:56:18.927Z,7.60
2022-11-29T18:58:56.757Z,7.60
2022-11-29T19:01:30.271Z,7.60
2022-11-29T19:03:59.337Z,7.60
2022-11-29T19:06:32.970Z,7.60
2022-11-29T19:09:05.807Z,7.60
2022-11-29T19:11:34.219Z,7.60
2022-11-29T19:14:04.061Z,7.60
2022-11-29T19:16:34.147Z,7.60
2022-11-29T19:19:01.633Z,7.60
2022-11-29T19:21:34.144Z,7.60
2022-11-29T19:24:07.498Z,7.60
2022-11-29T19:26:34.677Z,7.60
2022-11-29T19:29:02.016Z,7.60
2022-11-29T19:31:36.683Z,7.60
2022-11-29T19:34:16.657Z,7.50
2022-11-29T19:36:44.962Z,7.60
2022-11-29T19:39:15.076Z,7.50
2022-11-29T19:41:44.709Z,7.50
2022-11-29T19:44:12.281Z,7.60
2022-11-29T19:46:45.844Z,7.60
2022-11-29T19:49:15.852Z,7.60
2022-11-29T19:51:43.223Z,7.60
2022-11-29T19:54:10.630Z,7.60
2022-11-29T19:56:38.782Z,7.60
2022-11-29T19:59:06.769Z,7.60
2022-11-29T20:01:40.828Z,7.60
2022-11-29T20:04:10.552Z,7.60
2022-11-29T20:06:37.787Z,7.60
2022-11-29T20:09:05.116Z,7.60
2022-11-29T20:11:32.707Z,7.60
2022-11-29T20:14:01.762Z,7.60
2022-11-29T20:16:30.448Z,7.60
2022-11-29T20:18:58.622Z,7.60
2022-11-29T20:21:27.467Z,7.60
2022-11-29T20:24:07.807Z,7.70
2022-11-29T20:26:37.440Z,7.70
2022-11-29T20:29:06.347Z,7.70
2022-11-29T20:31:35.450Z,7.70
2022-11-29T20:34:06.537Z,7.70
2022-11-29T20:36:45.553Z,7.70
2022-11-29T20:39:38.915Z,7.70
2022-11-29T20:42:33.820Z,7.70
2022-11-29T20:45:02.886Z,7.70
2022-11-29T20:47:49.250Z,7.80
2022-11-29T20:50:25.051Z,7.80
2022-11-29T20:53:16.786Z,7.80
2022-11-29T20:55:48.036Z,7.80
2022-11-29T20:58:16.206Z,7.80
2022-11-29T21:00:43.258Z,7.80
2022-11-29T21:03:15.721Z,7.80
2022-11-29T21:05:42.979Z,7.80
2022-11-29T21:08:09.944Z,7.80
2022-11-29T21:10:37.449Z,7.80
2022-11-29T21:13:05.219Z,7.80
2022-11-29T21:15:32.796Z,7.80
2022-11-29T21:18:00.352Z,7.80
2022-11-29T21:20:28.200Z,7.80
2022-11-29T21:23:04.233Z,7.80
2022-11-29T21:25:58.295Z,7.80
2022-11-29T21:28:31.842Z,7.80
2022-11-29T21:30:59.388Z,7.80
2022-11-29T21:33:26.679Z,7.80
2022-11-29T21:35:57.815Z,7.80
2022-11-29T21:38:26.071Z,7.80
2022-11-29T21:40:54.306Z,7.80
2022-11-29T21:43:28.727Z,7.90
2022-11-29T21:46:08.565Z,7.80
2022-11-29T21:48:35.554Z,7.90
2022-11-29T21:51:07.756Z,7.80
2022-11-29T21:53:36.681Z,7.90
2022-11-29T21:56:08.677Z,7.90
2022-11-29T21:58:37.008Z,7.80
2022-11-29T22:01:14.107Z,7.90
2022-11-29T22:03:42.407Z,7.90
2022-11-29T22:06:16.330Z,7.90
2022-11-29T22:08:43.091Z,7.90
2022-11-29T22:11:13.973Z,7.90
2022-11-29T22:14:02.068Z,7.90
2022-11-29T22:16:30.346Z,7.90
2022-11-29T22:18:57.611Z,7.90
2022-11-29T22:21:24.566Z,7.90
2022-11-29T22:23:52.525Z,7.90
2022-11-29T22:26:19.590Z,7.90
2022-11-29T22:28:46.663Z,7.90
2022-11-29T22:31:18.921Z,7.90
2022-11-29T22:33:46.318Z,7.90
2022-11-29T22:36:13.539Z,8.00
2022-11-29T22:38:40.771Z,8.00
2022-11-29T22:41:12.882Z,7.90
2022-11-29T22:43:41.220Z,7.90
2022-11-29T22:46:11.096Z,7.90
2022-11-29T22:48:39.318Z,7.90
2022-11-29T22:51:06.884Z,7.90
2022-11-29T22:53:35.215Z,7.90
2022-11-29T22:56:04.782Z,7.90
2022-11-29T22:58:32.239Z,7.90
2022-11-29T23:01:07.847Z,7.90
2022-11-29T23:03:40.011Z,7.90
2022-11-29T23:06:11.916Z,8.00
2022-11-29T23:08:40.357Z,8.00
2022-11-29T23:11:09.386Z,7.90
2022-11-29T23:13:38.118Z,7.90
2022-11-29T23:16:07.368Z,7.90
2022-11-29T23:18:35.109Z,7.90
2022-11-29T23:21:02.085Z,7.90
2022-11-29T23:23:29.250Z,7.90
2022-11-29T23:25:56.170Z,7.90
2022-11-29T23:28:24.412Z,7.90
2022-11-29T23:30:51.741Z,8.00
2022-11-29T23:33:18.562Z,7.90
2022-11-29T23:35:45.420Z,8.00
2022-11-29T23:38:12.416Z,8.00
2022-11-29T23:40:39.519Z,8.00
2022-11-29T23:43:06.771Z,8.00
2022-11-29T23:45:36.224Z,8.00
2022-11-29T23:48:03.174Z,8.00
2022-11-29T23:50:30.072Z,7.90
2022-11-29T23:52:56.896Z,7.90
2022-11-29T23:55:24.999Z,8.00
2022-11-29T23:57:52.849Z,8.00
